WXM80 ListenWXM80 Stop

You find our weather info also at:

UK Metoffice

WeatherCloud

Weather Underground

Northeastern Weather Network

AWEKAS

Citizen Weather Observer Program (CWOP)

HAMweather, WeatherForYou, PWS Weather


Weather Underground History page Text

Daily Summary for June 29, 2017 Units:  Metric    English   Both
« Previous Day
Next Day »
Daily Weekly Monthly Yearly Custom
  High: Low: Average:
Temperature: 28.1 °C 18.1 °C 22.7 °C
Dew Point: 19.7 °C 13.3 °C 16.8 °C
Humidity: 79 % 55 % 70 %
Wind Speed: 12.1 km/h 0 km/h 3.1 km/h
Wind Gust: 22.5 km/h - -
Wind:- - SSW
Pressure: 1020.2 hPa 1015.1 hPa -
Precipitation: 0 mm    
Historical Graphs
 
 
Tabular Data for June 29, 2017
Time Temperature Dew Point Pressure Wind Wind Speed Wind Gust Humidity Rainfall Rate (Hourly)
00:00 19.7 °C 14.3 °C 1018.5 hPa Calm   3.7 km/h 71 % 0 mm
00:05 19.7 °C 14.3 °C 1018.5 hPa WSW 1 km/h 3.7 km/h 71 % 0 mm
00:10 19.7 °C 14.3 °C 1018.5 hPa SW 1.4 km/h 5.6 km/h 71 % 0 mm
00:15 19.7 °C 14.3 °C 1018.5 hPa SW 1.3 km/h 5.6 km/h 71 % 0 mm
00:20 19.6 °C 14.4 °C 1018.5 hPa SW 1.6 km/h 3.7 km/h 72 % 0 mm
00:25 19.6 °C 14.4 °C 1018.5 hPa SW 1.9 km/h 5.6 km/h 72 % 0 mm
00:30 19.6 °C 14.2 °C 1018.2 hPa South 0.5 km/h 3.7 km/h 71 % 0 mm
00:35 19.6 °C 14.2 °C 1018.2 hPa SW 1 km/h 5.6 km/h 71 % 0 mm
00:40 19.6 °C 14.2 °C 1018.5 hPa WSW 1.9 km/h 3.7 km/h 71 % 0 mm
00:45 19.6 °C 14.2 °C 1018.5 hPa WSW 1.3 km/h 4.8 km/h 71 % 0 mm
00:50 19.6 °C 14.2 °C 1018.5 hPa WSW 0.8 km/h 3.7 km/h 71 % 0 mm
00:55 19.6 °C 14.2 °C 1018.5 hPa WSW 2.3 km/h 5.6 km/h 71 % 0 mm
01:00 19.6 °C 14.2 °C 1018.5 hPa West 3.2 km/h 11.1 km/h 71 % 0 mm
01:05 19.6 °C 14.2 °C 1018.5 hPa WSW 1.3 km/h 4.8 km/h 71 % 0 mm
01:10 19.6 °C 14.2 °C 1018.5 hPa WSW 2.1 km/h 3.7 km/h 71 % 0 mm
01:15 19.6 °C 14.2 °C 1018.5 hPa WSW 0.6 km/h 1.9 km/h 71 % 0 mm
01:20 19.6 °C 14.2 °C 1018.5 hPa WSW 2.4 km/h 7.4 km/h 71 % 0 mm
01:25 19.5 °C 14.1 °C 1018.5 hPa SSE 1.8 km/h 4.8 km/h 71 % 0 mm
01:30 19.5 °C 14.1 °C 1018.5 hPa South 0.5 km/h 3.2 km/h 71 % 0 mm
01:35 19.5 °C 14.1 °C 1018.5 hPa SW 0.8 km/h 3.7 km/h 71 % 0 mm
01:40 19.4 °C 14.1 °C 1018.5 hPa SW 0.2 km/h 1.9 km/h 71 % 0 mm
01:45 19.4 °C 14.1 °C 1018.5 hPa Calm     71 % 0 mm
01:50 19.4 °C 14 °C 1018.8 hPa SW 1 km/h 5.6 km/h 71 % 0 mm
01:56 19.4 °C 14 °C 1018.8 hPa SW 0.5 km/h 3.7 km/h 71 % 0 mm
02:01 19.3 °C 13.9 °C 1018.8 hPa WSW 1 km/h 1.9 km/h 71 % 0 mm
02:06 19.3 °C 13.9 °C 1018.8 hPa WSW 3.2 km/h 12.9 km/h 71 % 0 mm
02:11 19.3 °C 13.9 °C 1018.8 hPa SW 1.6 km/h 8 km/h 71 % 0 mm
02:16 19.3 °C 13.7 °C 1018.8 hPa SW 1.6 km/h 6.4 km/h 70 % 0 mm
02:21 19.2 °C 13.6 °C 1018.8 hPa SW 1.6 km/h 4.8 km/h 70 % 0 mm
02:26 19.2 °C 13.6 °C 1018.8 hPa WSW 1.6 km/h 9.7 km/h 70 % 0 mm
02:31 19.2 °C 13.6 °C 1018.8 hPa Calm   6.4 km/h 70 % 0 mm
02:36 19.2 °C 13.6 °C 1018.8 hPa SW 0.2 km/h 5.6 km/h 70 % 0 mm
02:41 19.2 °C 13.6 °C 1018.8 hPa SW 0.5 km/h 3.2 km/h 70 % 0 mm
02:46 19.1 °C 13.5 °C 1018.8 hPa Calm   4.8 km/h 70 % 0 mm
02:51 19.1 °C 13.5 °C 1018.8 hPa Calm   1.6 km/h 70 % 0 mm
02:56 19.1 °C 13.7 °C 1018.8 hPa Calm   1.6 km/h 71 % 0 mm
03:01 19.1 °C 13.4 °C 1018.8 hPa SW 0.8 km/h 5.6 km/h 70 % 0 mm
03:06 19.1 °C 13.4 °C 1018.8 hPa SW 1.6 km/h 6.4 km/h 70 % 0 mm
03:11 19 °C 13.4 °C 1018.8 hPa Calm   6.4 km/h 70 % 0 mm
03:16 19 °C 13.6 °C 1018.8 hPa SW 1.6 km/h 5.6 km/h 71 % 0 mm
03:21 19 °C 13.4 °C 1018.8 hPa SW 1.9 km/h 3.7 km/h 70 % 0 mm
03:26 18.9 °C 13.3 °C 1018.8 hPa WSW 1.6 km/h 6.4 km/h 70 % 0 mm
03:31 18.9 °C 13.3 °C 1019.2 hPa Calm   4.8 km/h 70 % 0 mm
03:36 18.9 °C 13.3 °C 1019.2 hPa SW 1.6 km/h 8 km/h 70 % 0 mm
03:41 18.9 °C 13.3 °C 1019.2 hPa SW 1.6 km/h 6.4 km/h 70 % 0 mm
03:46 18.9 °C 13.5 °C 1019.2 hPa Calm   1.9 km/h 71 % 0 mm
03:51 18.8 °C 13.4 °C 1019.2 hPa SW 0.2 km/h 5.6 km/h 71 % 0 mm
03:56 18.8 °C 13.6 °C 1019.2 hPa SW 1.1 km/h 3.7 km/h 72 % 0 mm
04:01 18.8 °C 13.6 °C 1019.2 hPa SW 0.5 km/h 3.7 km/h 72 % 0 mm
04:06 18.7 °C 13.5 °C 1019.2 hPa SW 0.3 km/h 3.7 km/h 72 % 0 mm
04:11 18.7 °C 13.5 °C 1019.5 hPa WSW 0.6 km/h 3.7 km/h 72 % 0 mm
04:16 18.6 °C 13.6 °C 1019.5 hPa WSW 0.2 km/h 5.6 km/h 73 % 0 mm
04:21 18.6 °C 13.6 °C 1019.5 hPa SW 2.9 km/h 5.6 km/h 73 % 0 mm
04:26 18.4 °C 13.5 °C 1019.5 hPa SW 0.5 km/h 1.9 km/h 73 % 0 mm
04:31 18.4 °C 13.5 °C 1019.5 hPa SW 0.2 km/h 3.7 km/h 73 % 0 mm
04:36 18.4 °C 13.7 °C 1019.5 hPa Calm     74 % 0 mm
04:41 18.4 °C 13.7 °C 1019.5 hPa Calm     74 % 0 mm
04:46 18.3 °C 13.6 °C 1019.5 hPa Calm     74 % 0 mm
04:51 18.3 °C 13.8 °C 1019.5 hPa Calm   3.7 km/h 75 % 0 mm
04:56 18.2 °C 13.7 °C 1019.5 hPa WSW 1 km/h 5.6 km/h 75 % 0 mm
05:01 18.2 °C 13.7 °C 1019.5 hPa Calm     75 % 0 mm
05:06 18.1 °C 13.8 °C 1019.5 hPa Calm     76 % 0 mm
05:11 18.1 °C 13.6 °C 1019.5 hPa Calm     75 % 0 mm
05:16 18.1 °C 13.8 °C 1019.5 hPa Calm   1.9 km/h 76 % 0 mm
05:21 18.1 °C 13.8 °C 1019.5 hPa SW 0.6 km/h 1.6 km/h 76 % 0 mm
05:26 18.1 °C 13.8 °C 1019.5 hPa Calm   3.7 km/h 76 % 0 mm
05:31 18.1 °C 13.8 °C 1019.5 hPa SSW 0.3 km/h 1.9 km/h 76 % 0 mm
05:36 18.1 °C 14 °C 1019.5 hPa SSW 0.2 km/h 1.9 km/h 77 % 0 mm
05:41 18.1 °C 14 °C 1019.5 hPa Calm   5.6 km/h 77 % 0 mm
05:46 18.1 °C 14 °C 1019.5 hPa SW 0.2 km/h   77 % 0 mm
05:52 18.2 °C 14.1 °C 1019.5 hPa Calm     77 % 0 mm
05:57 18.2 °C 14.1 °C 1019.5 hPa Calm     77 % 0 mm
06:02 18.2 °C 14.1 °C 1019.5 hPa Calm     77 % 0 mm
06:07 18.2 °C 14.1 °C 1019.5 hPa Calm     77 % 0 mm
06:08 18.2 °C 14.1 °C 1019.5 hPa Calm     77 % 0 mm
06:13 18.3 °C 14.4 °C 1019.5 hPa Calm     78 % 0 mm
06:19 18.3 °C 14.4 °C 1019.5 hPa Calm     78 % 0 mm
06:24 18.3 °C 14.4 °C 1019.5 hPa Calm     78 % 0 mm
06:29 18.4 °C 14.5 °C 1019.5 hPa SW 0.5 km/h 3.7 km/h 78 % 0 mm
06:34 18.4 °C 14.6 °C 1019.9 hPa SW 0.2 km/h 1.9 km/h 78 % 0 mm
06:39 18.5 °C 14.6 °C 1019.9 hPa Calm     78 % 0 mm
06:44 18.6 °C 14.7 °C 1019.9 hPa West 2.9 km/h 7.4 km/h 78 % 0 mm
06:49 18.6 °C 14.7 °C 1019.5 hPa SSW 0.3 km/h 1.9 km/h 78 % 0 mm
06:54 18.7 °C 14.9 °C 1019.5 hPa SSW 0.3 km/h 1.9 km/h 79 % 0 mm
06:59 18.7 °C 15 °C 1019.5 hPa South 1.4 km/h 5.6 km/h 79 % 0 mm
07:04 18.8 °C 14.9 °C 1019.5 hPa Calm     78 % 0 mm
07:09 18.9 °C 15 °C 1019.5 hPa SW 0.3 km/h 4.8 km/h 78 % 0 mm
07:14 19.1 °C 15.1 °C 1019.9 hPa SW 4.8 km/h 13 km/h 78 % 0 mm
07:19 19.2 °C 15.3 °C 1019.9 hPa WSW 2.6 km/h 5.6 km/h 78 % 0 mm
07:24 19.3 °C 15.3 °C 1019.9 hPa Calm     78 % 0 mm
07:29 19.4 °C 15.7 °C 1019.9 hPa WSW 2.4 km/h 3.7 km/h 79 % 0 mm
07:34 19.5 °C 15.6 °C 1019.9 hPa WSW 0.2 km/h 3.7 km/h 78 % 0 mm
07:39 19.6 °C 15.7 °C 1020.2 hPa SW 0.3 km/h 1.9 km/h 78 % 0 mm
07:44 19.7 °C 15.8 °C 1019.9 hPa SW 0.5 km/h 1.9 km/h 78 % 0 mm
07:49 19.9 °C 15.9 °C 1020.2 hPa Calm   1.9 km/h 78 % 0 mm
07:54 20.1 °C 16.3 °C 1019.9 hPa Calm   1.9 km/h 79 % 0 mm
07:59 20.1 °C 16.2 °C 1019.9 hPa SW 0.3 km/h 1.9 km/h 78 % 0 mm
08:04 20.2 °C 16.3 °C 1019.9 hPa SW 0.6 km/h 3.2 km/h 78 % 0 mm
08:09 20.3 °C 16.4 °C 1019.9 hPa SW 0.2 km/h 1.9 km/h 78 % 0 mm
08:14 20.4 °C 16.3 °C 1019.9 hPa SW 0.3 km/h 1.9 km/h 77 % 0 mm
08:20 20.6 °C 16.4 °C 1019.9 hPa West 3.5 km/h 9.3 km/h 77 % 0 mm
08:25 20.7 °C 16.6 °C 1019.9 hPa Calm   1.9 km/h 77 % 0 mm
08:30 20.9 °C 16.7 °C 1019.5 hPa SSE 0.3 km/h 3.7 km/h 77 % 0 mm
08:35 21.1 °C 16.9 °C 1019.5 hPa SW 1.8 km/h 7.4 km/h 77 % 0 mm
08:40 21.2 °C 16.8 °C 1019.5 hPa WSW 2.3 km/h 3.2 km/h 76 % 0 mm
08:45 21.3 °C 17.1 °C 1019.5 hPa SW 0.3 km/h 1.9 km/h 77 % 0 mm
08:50 21.4 °C 17.1 °C 1019.5 hPa South 1.1 km/h 3.7 km/h 76 % 0 mm
08:55 21.6 °C 17.2 °C 1019.5 hPa SW 1.3 km/h 5.6 km/h 76 % 0 mm
09:00 21.7 °C 17.3 °C 1019.2 hPa South 1.4 km/h 5.6 km/h 76 % 0 mm
09:05 21.8 °C 17.2 °C 1019.2 hPa SW 2.9 km/h 7.4 km/h 75 % 0 mm
09:10 21.9 °C 17.1 °C 1019.2 hPa SE 2.9 km/h 14.8 km/h 74 % 0 mm
09:15 22.2 °C 17.3 °C 1019.2 hPa SSW 1.1 km/h 7.4 km/h 74 % 0 mm
09:20 22.4 °C 17.3 °C 1019.2 hPa SSE 3.1 km/h 5.6 km/h 73 % 0 mm
09:25 22.6 °C 17.1 °C 1018.8 hPa NE 0.6 km/h 3.7 km/h 71 % 0 mm
09:30 22.8 °C 17.3 °C 1018.8 hPa WSW 4 km/h 7.4 km/h 71 % 0 mm
09:35 23.1 °C 17.3 °C 1018.8 hPa SSW 5.3 km/h 8 km/h 70 % 0 mm
09:40 23.3 °C 17.6 °C 1018.8 hPa South 2.3 km/h 9.7 km/h 70 % 0 mm
09:45 23.6 °C 17.6 °C 1018.8 hPa West 2.4 km/h 5.6 km/h 69 % 0 mm
09:50 23.8 °C 17.5 °C 1018.8 hPa Calm   3.7 km/h 68 % 0 mm
09:55 24 °C 17.7 °C 1018.8 hPa SSW 1.9 km/h 9.3 km/h 68 % 0 mm
10:00 24.2 °C 17.7 °C 1018.8 hPa SW 5 km/h 9.3 km/h 67 % 0 mm
10:05 24.4 °C 18.1 °C 1018.5 hPa SW 0.3 km/h 3.7 km/h 68 % 0 mm
10:10 24.6 °C 17.3 °C 1018.5 hPa SSW 4 km/h 8 km/h 64 % 0 mm
10:16 24.8 °C 18.4 °C 1018.8 hPa SSW 1.6 km/h 9.7 km/h 68 % 0 mm
10:21 24.9 °C 17.9 °C 1018.8 hPa SSW 3.2 km/h 16.1 km/h 65 % 0 mm
10:26 25.1 °C 17.3 °C 1018.8 hPa South 3.2 km/h 16.1 km/h 62 % 0 mm
10:30 25.3 °C 18.5 °C 1018.8 hPa South 1.6 km/h 9.7 km/h 66 % 0 mm
10:35 25.4 °C 17.9 °C 1018.8 hPa South 1.6 km/h 9.7 km/h 63 % 0 mm
10:41 25.6 °C 17.7 °C 1018.8 hPa SSW 4.8 km/h 11.3 km/h 62 % 0 mm
10:46 25.6 °C 18.1 °C 1018.8 hPa SSW 4.8 km/h 12.9 km/h 63 % 0 mm
10:51 25.7 °C 17.8 °C 1018.8 hPa SSW 1.6 km/h 8 km/h 62 % 0 mm
10:56 25.7 °C 18.3 °C 1018.8 hPa SW 4.8 km/h 12.9 km/h 64 % 0 mm
11:01 25.8 °C 18.4 °C 1018.8 hPa South 5.1 km/h 9.3 km/h 64 % 0 mm
11:06 25.9 °C 18.6 °C 1018.8 hPa SW 2.3 km/h 5.6 km/h 64 % 0 mm
11:11 26.1 °C 18.8 °C 1018.5 hPa SSW 4.5 km/h 14.8 km/h 64 % 0 mm
11:16 26.5 °C 18.9 °C 1018.5 hPa ESE 2.6 km/h 5.6 km/h 63 % 0 mm
11:21 26.7 °C 18.6 °C 1018.5 hPa SSW 2.7 km/h 5.6 km/h 61 % 0 mm
11:26 26.9 °C 18.8 °C 1018.5 hPa SW 2.3 km/h 5.6 km/h 61 % 0 mm
11:31 27.2 °C 18.7 °C 1018.5 hPa SSE 2.4 km/h 5.6 km/h 60 % 0 mm
11:36 27.3 °C 19.7 °C 1018.5 hPa SE 5 km/h 11.1 km/h 63 % 0 mm
11:41 27.6 °C 18.8 °C 1018.5 hPa SSW 8 km/h 16.7 km/h 59 % 0 mm
11:46 27.8 °C 18.8 °C 1018.5 hPa SSW 6 km/h 11.1 km/h 58 % 0 mm
11:51 28 °C 18.7 °C 1018.5 hPa South 4.2 km/h 9.3 km/h 57 % 0 mm
11:56 28.1 °C 19.3 °C 1018.2 hPa WSW 4.3 km/h 7.4 km/h 59 % 0 mm
12:01 28.1 °C 18.2 °C 1018.2 hPa SSE 4 km/h 7.4 km/h 55 % 0 mm
12:06 27.9 °C 18.9 °C 1018.2 hPa SSW 3.7 km/h 5.6 km/h 58 % 0 mm
12:11 27.8 °C 18.5 °C 1018.2 hPa SSW 2.1 km/h 5.6 km/h 57 % 0 mm
12:16 27.8 °C 18.5 °C 1018.2 hPa SSE 3.1 km/h 7.4 km/h 57 % 0 mm
12:21 27.6 °C 18.3 °C 1018.2 hPa SSW 3.9 km/h 13 km/h 57 % 0 mm
12:26 27.4 °C 17.8 °C 1018.2 hPa WSW 4.2 km/h 5.6 km/h 56 % 0 mm
12:31 27.4 °C 18.4 °C 1018.2 hPa SSW 2.6 km/h 5.6 km/h 58 % 0 mm
12:36 27.6 °C 18.6 °C 1017.8 hPa SSW 8.7 km/h 13 km/h 58 % 0 mm
12:41 27.7 °C 18.4 °C 1017.8 hPa SSE 4 km/h 7.4 km/h 57 % 0 mm
12:46 27.6 °C 17.7 °C 1017.8 hPa SE 2.7 km/h 16.1 km/h 55 % 0 mm
12:51 27.4 °C 18.4 °C 1017.8 hPa SSE 4.2 km/h 5.6 km/h 58 % 0 mm
12:56 27.5 °C 19.6 °C 1017.8 hPa SSW 1.8 km/h 5.6 km/h 62 % 0 mm
13:01 27.7 °C 18.4 °C 1017.8 hPa South 3.4 km/h 11.1 km/h 57 % 0 mm
13:06 27.8 °C 19.1 °C 1017.8 hPa SW 8.5 km/h 18.5 km/h 59 % 0 mm
13:10 27.9 °C 19.4 °C 1017.8 hPa South 2.6 km/h 9.3 km/h 60 % 0 mm
13:15 27.9 °C 18.9 °C 1017.8 hPa SE 1.9 km/h 5.6 km/h 58 % 0 mm
13:20 28.1 °C 19.6 °C 1017.8 hPa South 4.3 km/h 12.9 km/h 60 % 0 mm
13:25 27.9 °C 18 °C 1017.5 hPa South 5.3 km/h 13 km/h 55 % 0 mm
13:30 27.6 °C 18.3 °C 1017.5 hPa WNW 3.7 km/h 9.3 km/h 57 % 0 mm
13:35 27.5 °C 19.1 °C 1017.5 hPa SSW 6.3 km/h 8 km/h 60 % 0 mm
13:40 27.4 °C 19 °C 1017.5 hPa South 5 km/h 14.5 km/h 60 % 0 mm
13:45 27.4 °C 18.4 °C 1017.5 hPa South 3.9 km/h 9.7 km/h 58 % 0 mm
13:50 27.5 °C 18.5 °C 1017.5 hPa South 6.4 km/h 22.2 km/h 58 % 0 mm
13:55 27.6 °C 19.2 °C 1017.5 hPa SSW 6.3 km/h 9.3 km/h 60 % 0 mm
14:00 27.6 °C 19.4 °C 1017.2 hPa SW 3.2 km/h 5.6 km/h 61 % 0 mm
14:05 27.7 °C 19 °C 1017.2 hPa SSE 4.8 km/h 7.4 km/h 59 % 0 mm
14:10 27.7 °C 19.2 °C 1017.5 hPa SW 6.4 km/h 13 km/h 60 % 0 mm
14:15 27.8 °C 19.3 °C 1017.2 hPa SSW 7.6 km/h 11.3 km/h 60 % 0 mm
14:20 27.9 °C 19.4 °C 1017.2 hPa SW 8.9 km/h 18.5 km/h 60 % 0 mm
14:25 27.9 °C 19.2 °C 1017.2 hPa SSW 4.3 km/h 11.1 km/h 59 % 0 mm
14:30 28 °C 19.5 °C 1017.2 hPa South 1.9 km/h 6.4 km/h 60 % 0 mm
14:35 28 °C 18.7 °C 1017.2 hPa SSW 12.1 km/h 20.4 km/h 57 % 0 mm
14:40 27.9 °C 19.2 °C 1017.5 hPa SW 7.1 km/h 13 km/h 59 % 0 mm
14:45 27.9 °C 19.4 °C 1017.5 hPa South 2.4 km/h 6.4 km/h 60 % 0 mm
14:50 27.9 °C 19.4 °C 1017.5 hPa SE 1.1 km/h   60 % 0 mm
14:55 27.8 °C 18.8 °C 1017.2 hPa SSW 3.5 km/h 8 km/h 58 % 0 mm
15:00 27.5 °C 19.1 °C 1017.2 hPa WSW 6.4 km/h 13 km/h 60 % 0 mm
15:05 27.4 °C 19.2 °C 1017.2 hPa South 6.4 km/h 13 km/h 61 % 0 mm
15:10 27.2 °C 18.8 °C 1016.8 hPa SW 4.5 km/h 13 km/h 60 % 0 mm
15:16 27.2 °C 19 °C 1017.2 hPa South 9.7 km/h 22.5 km/h 61 % 0 mm
15:21 27.1 °C 19.2 °C 1017.2 hPa SSW 4.8 km/h 11.3 km/h 62 % 0 mm
15:26 27.1 °C 19.2 °C 1016.8 hPa SSW 8 km/h 16.1 km/h 62 % 0 mm
15:31 27.1 °C 18.9 °C 1016.8 hPa South 4.8 km/h 11.3 km/h 61 % 0 mm
15:37 26.9 °C 18.8 °C 1016.8 hPa SSW 7.2 km/h 9.7 km/h 61 % 0 mm
15:42 26.9 °C 19 °C 1016.8 hPa SSW 3.5 km/h 5.6 km/h 62 % 0 mm
15:47 26.9 °C 19.6 °C 1016.8 hPa SW 8.7 km/h 8.7 km/h 64 % 0 mm
15:52 27 °C 19.3 °C 1016.8 hPa SSW 5.8 km/h 6.4 km/h 63 % 0 mm
15:57 26.9 °C 19.3 °C 1016.5 hPa South 8.7 km/h 16.7 km/h 63 % 0 mm
16:02 26.8 °C 18.7 °C 1016.5 hPa SSW 8.4 km/h 18.5 km/h 61 % 0 mm
16:07 26.7 °C 19.1 °C 1016.5 hPa South 6.6 km/h 18.5 km/h 63 % 0 mm
16:12 26.5 °C 18.9 °C 1016.5 hPa SSE 4.3 km/h 11.1 km/h 63 % 0 mm
16:17 26.3 °C 18.7 °C 1016.1 hPa South 3.1 km/h 16.7 km/h 63 % 0 mm
16:22 26.1 °C 18.7 °C 1016.1 hPa SSE 3.7 km/h 11.1 km/h 64 % 0 mm
16:27 25.9 °C 18.8 °C 1016.1 hPa SSW 7.2 km/h 16.1 km/h 65 % 0 mm
16:32 25.7 °C 18.9 °C 1016.1 hPa SW 3.1 km/h 9.3 km/h 66 % 0 mm
16:37 25.6 °C 18.7 °C 1016.1 hPa SSE 5.6 km/h 22.5 km/h 66 % 0 mm
16:42 25.3 °C 18.5 °C 1016.1 hPa SE 2.1 km/h 7.4 km/h 66 % 0 mm
16:48 25.2 °C 18.7 °C 1016.1 hPa SSW 8.2 km/h 22.2 km/h 67 % 0 mm
16:53 25.2 °C 18.6 °C 1016.1 hPa SSE 4.2 km/h 14.8 km/h 67 % 0 mm
16:58 25.1 °C 18.8 °C 1015.8 hPa SSW 5.1 km/h 13 km/h 68 % 0 mm
17:03 25.1 °C 19 °C 1015.8 hPa SSE 6.9 km/h 14.8 km/h 69 % 0 mm
17:06 25.1 °C 18.9 °C 1015.8 hPa SW 5.1 km/h 14.8 km/h 69 % 0 mm
17:11 24.9 °C 18.9 °C 1015.8 hPa SSW 7.4 km/h 13 km/h 69 % 0 mm
17:16 24.8 °C 18.8 °C 1015.8 hPa SE 5.3 km/h 17.7 km/h 69 % 0 mm
17:21 24.7 °C 18.9 °C 1015.8 hPa SSW 2.3 km/h 7.4 km/h 70 % 0 mm
17:26 24.7 °C 18.8 °C 1015.8 hPa SW 3.9 km/h 11.1 km/h 70 % 0 mm
17:31 24.6 °C 18.9 °C 1015.8 hPa South 3.9 km/h 7.4 km/h 71 % 0 mm
17:36 24.4 °C 18.6 °C 1015.8 hPa SSW 5 km/h 11.1 km/h 70 % 0 mm
17:41 24.3 °C 18.7 °C 1015.8 hPa SW 5.6 km/h 20.4 km/h 71 % 0 mm
17:46 24.3 °C 18.7 °C 1015.8 hPa South 8.9 km/h 18.5 km/h 71 % 0 mm
17:51 24.2 °C 18.6 °C 1015.8 hPa SSE 1.8 km/h 5.6 km/h 71 % 0 mm
17:56 24.2 °C 18.8 °C 1016.1 hPa South 5.3 km/h 16.7 km/h 72 % 0 mm
18:01 24.1 °C 18.4 °C 1015.8 hPa SSW 5.6 km/h 11.3 km/h 71 % 0 mm
18:06 24 °C 18.7 °C 1015.8 hPa South 3.7 km/h 5.6 km/h 72 % 0 mm
18:11 23.9 °C 18.6 °C 1016.1 hPa South 4.5 km/h 9.7 km/h 72 % 0 mm
18:16 23.9 °C 18.8 °C 1016.1 hPa SE 3.7 km/h 11.1 km/h 73 % 0 mm
18:21 23.8 °C 18.7 °C 1016.1 hPa SSE 3.2 km/h 5.6 km/h 73 % 0 mm
18:26 23.8 °C 18.7 °C 1016.1 hPa ENE 4.8 km/h 16.7 km/h 73 % 0 mm
18:31 23.8 °C 18.7 °C 1016.1 hPa SSW 6.1 km/h 11.1 km/h 73 % 0 mm
18:36 23.7 °C 18.6 °C 1015.8 hPa South 6.4 km/h 11.3 km/h 73 % 0 mm
18:41 23.6 °C 18.5 °C 1015.8 hPa ESE 5.8 km/h 12.9 km/h 73 % 0 mm
18:46 23.5 °C 18.4 °C 1015.8 hPa SSE 5.5 km/h 9.7 km/h 73 % 0 mm
18:51 23.4 °C 18.6 °C 1015.8 hPa South 6.9 km/h 11.1 km/h 74 % 0 mm
18:56 23.4 °C 18.5 °C 1015.5 hPa SSE 7.9 km/h 11.3 km/h 74 % 0 mm
19:01 23.4 °C 18.3 °C 1015.8 hPa SSW 6.4 km/h 13 km/h 73 % 0 mm
19:06 23.3 °C 18.2 °C 1015.8 hPa SSW 7.2 km/h 11.1 km/h 73 % 0 mm
19:11 23.3 °C 18.4 °C 1015.8 hPa South 4.8 km/h 14.5 km/h 74 % 0 mm
19:16 23.3 °C 18.4 °C 1015.8 hPa South 8 km/h 14.5 km/h 74 % 0 mm
19:21 23.2 °C 18.3 °C 1015.8 hPa SSW 8 km/h 19.3 km/h 74 % 0 mm
19:26 23.2 °C 18.3 °C 1015.8 hPa SSW 3.2 km/h 12.9 km/h 74 % 0 mm
19:31 23.1 °C 18.2 °C 1015.8 hPa SSW 3.2 km/h 14.5 km/h 74 % 0 mm
19:36 23.1 °C 18.2 °C 1015.8 hPa SSW 8 km/h 20.9 km/h 74 % 0 mm
19:41 22.9 °C 18.1 °C 1015.8 hPa SSW 4.8 km/h 14.5 km/h 74 % 0 mm
19:46 22.9 °C 18 °C 1015.5 hPa South 4.8 km/h 14.5 km/h 74 % 0 mm
19:51 22.8 °C 18.2 °C 1015.8 hPa South 4.8 km/h 11.3 km/h 75 % 0 mm
19:56 22.8 °C 18.1 °C 1015.8 hPa SSE 4 km/h 11.1 km/h 75 % 0 mm
20:01 22.7 °C 18.3 °C 1015.8 hPa SE 6.6 km/h 11.3 km/h 76 % 0 mm
20:06 22.7 °C 18.2 °C 1015.8 hPa South 3.2 km/h 11.3 km/h 76 % 0 mm
20:11 22.6 °C 18.1 °C 1015.8 hPa SSW 3.2 km/h 12.9 km/h 76 % 0 mm
20:16 22.5 °C 18.3 °C 1015.5 hPa SSW 2.4 km/h 5.6 km/h 77 % 0 mm
20:21 22.4 °C 18.2 °C 1015.5 hPa SE 3.4 km/h 9.3 km/h 77 % 0 mm
20:26 22.4 °C 18.2 °C 1015.5 hPa South 4.8 km/h 16.1 km/h 77 % 0 mm
20:31 22.3 °C 18.1 °C 1015.5 hPa South 8 km/h 14.5 km/h 77 % 0 mm
20:36 22.3 °C 17.9 °C 1015.5 hPa South 3.2 km/h 12.9 km/h 76 % 0 mm
20:41 22.3 °C 17.8 °C 1015.1 hPa South 3.2 km/h 11.3 km/h 76 % 0 mm
20:46 22.3 °C 17.9 °C 1015.1 hPa South 4.8 km/h 16.1 km/h 76 % 0 mm
20:51 22.3 °C 17.8 °C 1015.1 hPa South 4.8 km/h 14.5 km/h 76 % 0 mm
20:56 22.3 °C 17.9 °C 1015.5 hPa South 4.8 km/h 11.3 km/h 76 % 0 mm
21:01 22.3 °C 17.8 °C 1015.1 hPa SW 5.8 km/h 7.4 km/h 76 % 0 mm
21:06 22.3 °C 17.6 °C 1015.1 hPa SSW 5 km/h 9.3 km/h 75 % 0 mm
21:11 22.3 °C 17.6 °C 1015.1 hPa South 3.2 km/h 12.9 km/h 75 % 0 mm
21:16 22.3 °C 17.6 °C 1015.1 hPa South 3.2 km/h 11.3 km/h 75 % 0 mm
21:21 22.2 °C 17.6 °C 1015.1 hPa South 3.2 km/h 11.3 km/h 75 % 0 mm
21:26 22.2 °C 17.6 °C 1015.5 hPa SSW 3.2 km/h 9.7 km/h 75 % 0 mm
21:31 22.2 °C 17.6 °C 1015.5 hPa SSW 1.6 km/h 9.7 km/h 75 % 0 mm
21:36 22.2 °C 17.5 °C 1015.5 hPa South 0.5 km/h 5.6 km/h 75 % 0 mm
21:41 22.2 °C 17.5 °C 1015.5 hPa SE 3.1 km/h 7.4 km/h 75 % 0 mm
21:46 22.1 °C 17.4 °C 1015.5 hPa South 2.6 km/h 5.6 km/h 75 % 0 mm
21:51 22.1 °C 17.4 °C 1015.5 hPa SSW 2.1 km/h 5.6 km/h 75 % 0 mm
21:56 22.1 °C 17.2 °C 1015.5 hPa South 3.2 km/h 11.3 km/h 74 % 0 mm
22:01 22.1 °C 17.2 °C 1015.5 hPa SSE 2.3 km/h 5.6 km/h 74 % 0 mm
22:06 22.1 °C 17.2 °C 1015.5 hPa SSW 1.6 km/h 8 km/h 74 % 0 mm
22:11 22.1 °C 17.2 °C 1015.5 hPa SSW 1.6 km/h 12.9 km/h 74 % 0 mm
22:16 22.1 °C 17.2 °C 1015.5 hPa SSW 3.2 km/h 12.9 km/h 74 % 0 mm
22:21 22 °C 17.2 °C 1015.5 hPa SSW 3.2 km/h 9.7 km/h 74 % 0 mm
22:26 22 °C 17.2 °C 1015.5 hPa South 3.2 km/h 12.9 km/h 74 % 0 mm
22:31 22 °C 17.2 °C 1015.5 hPa South 3.2 km/h 9.7 km/h 74 % 0 mm
22:36 22 °C 17.2 °C 1015.5 hPa SSE 3.2 km/h 11.3 km/h 74 % 0 mm
22:41 22 °C 17.1 °C 1015.5 hPa South 3.2 km/h 8 km/h 74 % 0 mm
22:46 21.9 °C 17.3 °C 1015.5 hPa SSW 1.6 km/h 9.7 km/h 75 % 0 mm
22:51 21.9 °C 17.1 °C 1015.8 hPa SW 4 km/h 4.8 km/h 74 % 0 mm
22:56 21.9 °C 17.1 °C 1015.8 hPa SSW 2.4 km/h 4.8 km/h 74 % 0 mm
23:01 21.9 °C 17.1 °C 1015.8 hPa SSW 1.6 km/h 9.3 km/h 74 % 0 mm
23:06 21.9 °C 17.1 °C 1015.5 hPa SSW 3.4 km/h 5.6 km/h 74 % 0 mm
23:11 21.9 °C 17.1 °C 1015.5 hPa SSW 0.8 km/h 9.3 km/h 74 % 0 mm
23:16 21.9 °C 17.1 °C 1015.5 hPa SSE 3.4 km/h 5.6 km/h 74 % 0 mm
23:21 21.9 °C 17.1 °C 1015.5 hPa South 3.7 km/h 7.4 km/h 74 % 0 mm
23:26 21.9 °C 16.8 °C 1015.5 hPa SE 1.8 km/h 5.6 km/h 73 % 0 mm
23:31 21.9 °C 16.9 °C 1015.5 hPa SSW 5 km/h 14.8 km/h 73 % 0 mm
23:36 21.9 °C 16.9 °C 1015.5 hPa South 3.1 km/h 7.4 km/h 73 % 0 mm
23:41 21.9 °C 16.9 °C 1015.5 hPa SSW 4 km/h 9.3 km/h 73 % 0 mm
23:46 21.9 °C 16.7 °C 1015.5 hPa South 1 km/h 5.6 km/h 72 % 0 mm
23:51 21.9 °C 16.7 °C 1015.1 hPa South 2.3 km/h 5.6 km/h 72 % 0 mm
23:56 21.9 °C 16.7 °C 1015.5 hPa SSW 4.3 km/h 11.1 km/h 72 % 0 mm
Crab Meadow Weather
Compliments of Weather Underground - 3 mb

Script developed by  Jim McMurry - jmcmurry@mwt.net Adapted for the template by  Wim van der Kuil - Leuven-Template.eu

Recycling: The average American uses seven trees a year in paper, wood, and other products made from trees. This amounts to about 2,000,000,000 trees per year!